Time;durP1;ratioP1;P1;durP2;ratioP2;P2;SDS_P1;SDS_P2;PMS_P1;PMS_P2;Temp;Humidity;BMP_temperature;BMP_pressure;BME280_temperature;BME280_humidity;BME280_pressure;Samples;Min_cycle;Max_cycle;Signal;HPM_P1;HPM_P2
2023/07/09 00:06:01;;;;;;;5.35;4.57;;;28.40;52.70;;;;;;4791877;29;92895;-93
2023/07/09 00:12:22;;;;;;;;;;;;;;;;;;;;;
2023/07/09 03:35:27;;;;;;;4.00;3.60;;;28.20;52.20;;;;;;5510990;22;93507;-94
2023/07/09 03:38:31;;;;;;;4.40;4.00;;;28.20;52.50;;;;;;4960113;28;92565;-95
2023/07/09 03:41:28;;;;;;;5.60;4.00;;;28.20;52.30;;;;;;4936504;28;96170;-95
2023/07/09 03:44:40;;;;;;;4.50;3.95;;;28.30;52.20;;;;;;4871408;28;94421;-95
2023/07/09 03:51:32;;;;;;;5.50;3.65;;;28.20;52.10;;;;;;4816330;28;93744;-95
2023/07/09 04:10:58;;;;;;;;;;;;;;;;;;;;;
2023/07/09 04:14:06;;;;;;;;;;;;;;;;;;;;;
2023/07/09 04:17:12;;;;;;;;;;;;;;;;;;;;;
2023/07/09 04:20:26;;;;;;;;;;;;;;;;;;;;;
2023/07/09 04:23:50;;;;;;;4.63;4.03;;;28.30;51.70;;;;;;4973019;28;93186;-95
2023/07/09 04:33:35;;;;;;;4.72;3.92;;;28.40;51.60;;;;;;4859772;28;92661;-96
2023/07/09 04:37:01;;;;;;;;;;;;;;;;;;;;;
2023/07/09 05:22:04;;;;;;;3.58;3.05;;;28.40;51.50;;;;;;5270805;22;92617;-96
2023/07/09 05:28:56;;;;;;;;;;;;;;;;;;;;;
2023/07/09 05:32:01;;;;;;;;;;;;;;;;;;;;;
2023/07/09 06:18:50;;;;;;;5.68;3.35;;;28.70;51.10;;;;;;6155455;22;2020612;-93
2023/07/09 06:21:15;;;;;;;4.60;3.70;;;28.70;51.10;;;;;;6156940;22;86401;-90
2023/07/09 06:23:41;;;;;;;5.18;3.67;;;28.70;50.70;;;;;;6159540;22;86208;-91
2023/07/09 06:26:06;;;;;;;4.80;3.85;;;28.70;50.40;;;;;;6156722;22;88032;-91
2023/07/09 06:28:33;;;;;;;5.80;3.88;;;28.70;50.80;;;;;;6155655;22;88410;-91
2023/07/09 06:30:59;;;;;;;7.75;4.13;;;28.80;50.80;;;;;;6161475;22;86262;-90
2023/07/09 06:33:25;;;;;;;7.72;4.20;;;28.80;51.00;;;;;;6159826;22;85759;-92
2023/07/09 06:35:53;;;;;;;6.85;4.18;;;28.80;51.70;;;;;;6158829;22;89502;-91
2023/07/09 06:38:20;;;;;;;7.85;4.15;;;28.80;52.10;;;;;;6156191;22;88568;-91
2023/07/09 06:40:46;;;;;;;9.05;4.68;;;28.80;53.30;;;;;;6159251;22;86120;-90
2023/07/09 06:43:12;;;;;;;6.05;3.85;;;28.80;53.10;;;;;;6156071;22;86377;-91
2023/07/09 06:45:38;;;;;;;5.95;4.30;;;28.80;53.60;;;;;;6158252;22;88188;-94
2023/07/09 06:48:04;;;;;;;6.80;4.28;;;28.90;54.30;;;;;;6152572;22;88830;-92
2023/07/09 06:50:33;;;;;;;11.23;4.80;;;28.80;54.80;;;;;;6153664;22;86108;-94
2023/07/09 06:52:59;;;;;;;10.52;5.03;;;28.80;54.00;;;;;;6153310;22;86437;-93
2023/07/09 06:55:25;;;;;;;6.97;4.38;;;28.90;53.40;;;;;;6152099;22;86504;-93
2023/07/09 06:57:51;;;;;;;7.93;4.50;;;29.00;53.40;;;;;;6151907;22;88584;-95
2023/07/09 07:00:16;;;;;;;9.25;5.22;;;29.00;53.50;;;;;;6154527;22;86271;-92
2023/07/09 07:02:42;;;;;;;10.35;4.93;;;28.90;53.60;;;;;;6154879;22;85539;-93
2023/07/09 07:05:08;;;;;;;6.78;4.40;;;28.90;53.80;;;;;;6150780;22;90076;-94
2023/07/09 07:07:34;;;;;;;5.93;4.25;;;29.00;53.40;;;;;;6151558;22;88337;-92
2023/07/09 07:10:00;;;;;;;8.25;4.60;;;29.00;53.30;;;;;;6153219;22;85900;-94
2023/07/09 07:12:28;;;;;;;8.48;5.38;;;29.00;54.40;;;;;;6152310;22;86220;-93
2023/07/09 07:14:55;;;;;;;7.28;4.80;;;28.90;53.80;;;;;;6155268;22;88207;-94
2023/07/09 07:17:21;;;;;;;22.65;7.47;;;28.90;53.90;;;;;;6152136;22;88995;-89
2023/07/09 07:19:47;;;;;;;66.65;13.88;;;28.80;53.90;;;;;;6173808;22;86366;-90
2023/07/09 07:22:13;;;;;;;99.38;22.48;;;28.90;53.50;;;;;;6182036;22;85516;-90
2023/07/09 07:24:38;;;;;;;151.48;35.00;;;28.90;53.50;;;;;;6167731;22;89274;-90
2023/07/09 07:27:04;;;;;;;157.98;36.75;;;28.80;54.00;;;;;;6192659;22;86133;-87
2023/07/09 07:29:30;;;;;;;170.38;41.72;;;28.90;53.90;;;;;;6179622;22;86299;-92
2023/07/09 07:31:57;;;;;;;161.40;38.13;;;28.80;53.80;;;;;;6181521;22;86757;-88
2023/07/09 07:34:22;;;;;;;171.45;41.67;;;28.80;53.90;;;;;;6179685;22;89310;-92
2023/07/09 07:36:50;;;;;;;151.43;39.38;;;28.90;53.80;;;;;;6177408;22;88970;-88
2023/07/09 07:39:15;;;;;;;174.13;42.60;;;28.90;53.30;;;;;;6177004;22;85584;-89
2023/07/09 07:41:46;;;;;;;151.48;40.17;;;28.80;53.90;;;;;;6137433;22;86022;-88
2023/07/09 07:44:12;;;;;;;132.48;37.60;;;28.90;53.90;;;;;;6148224;22;88177;-91
2023/07/09 07:46:38;;;;;;;156.68;39.42;;;28.90;54.10;;;;;;6152522;22;85496;-91
2023/07/09 07:49:04;;;;;;;147.98;39.55;;;28.90;53.90;;;;;;6111887;22;86096;-92
2023/07/09 07:51:29;;;;;;;148.25;40.65;;;28.80;54.10;;;;;;6153387;22;86330;-91
2023/07/09 07:53:56;;;;;;;145.38;39.97;;;28.90;54.20;;;;;;6150972;22;87395;-89
2023/07/09 07:56:22;;;;;;;125.40;39.15;;;28.80;54.60;;;;;;6150170;22;86228;-88
2023/07/09 07:58:47;;;;;;;112.38;36.95;;;28.90;54.10;;;;;;6138272;22;86267;-88
2023/07/09 08:01:13;;;;;;;119.53;36.38;;;28.90;54.00;;;;;;6144806;22;86009;-87
2023/07/09 08:03:38;;;;;;;114.72;35.25;;;28.90;54.00;;;;;;6149767;22;86217;-91
2023/07/09 08:06:04;;;;;;;112.38;32.83;;;28.80;54.20;;;;;;6147293;22;86274;-89
2023/07/09 08:08:30;;;;;;;116.28;34.55;;;28.80;54.30;;;;;;6149131;22;86154;-88
2023/07/09 08:11:07;;;;;;;112.30;34.10;;;28.80;54.40;;;;;;6148541;22;86296;-90
2023/07/09 08:13:34;;;;;;;117.30;35.15;;;28.80;54.80;;;;;;6148473;22;86230;-89
2023/07/09 08:16:00;;;;;;;93.28;32.17;;;28.80;54.50;;;;;;6146284;22;89919;-88
2023/07/09 08:18:26;;;;;;;89.03;30.63;;;29.00;54.90;;;;;;6146492;22;86525;-89
2023/07/09 08:20:51;;;;;;;99.13;30.67;;;28.80;55.30;;;;;;6147173;22;86089;-87
2023/07/09 08:23:17;;;;;;;85.50;30.88;;;28.80;55.50;;;;;;6147195;22;86716;-89
2023/07/09 08:25:42;;;;;;;83.70;29.30;;;28.80;55.90;;;;;;6146165;22;86213;-88
2023/07/09 08:28:08;;;;;;;86.15;27.73;;;28.80;55.60;;;;;;6147688;22;85387;-90
2023/07/09 08:30:35;;;;;;;79.75;26.08;;;28.80;55.90;;;;;;6148048;22;85602;-89
2023/07/09 08:33:01;;;;;;;72.70;26.52;;;28.80;56.00;;;;;;6148836;22;86387;-87
2023/07/09 08:35:26;;;;;;;76.38;26.77;;;28.80;55.70;;;;;;6147283;22;86406;-88
2023/07/09 08:37:52;;;;;;;69.95;23.75;;;28.80;56.70;;;;;;6148605;22;86349;-90
2023/07/09 08:40:18;;;;;;;64.72;23.65;;;28.80;56.60;;;;;;6147866;22;86227;-87
2023/07/09 08:42:49;;;;;;;60.78;22.90;;;28.80;56.60;;;;;;6150074;22;86257;-89
2023/07/09 08:46:03;;;;;;;58.42;20.40;;;28.80;56.80;;;;;;6145152;22;88724;-90
2023/07/09 08:48:34;;;;;;;56.83;21.48;;;28.80;56.30;;;;;;6149861;22;87124;-88
2023/07/09 08:51:08;;;;;;;60.15;21.45;;;28.90;56.40;;;;;;6145891;22;87022;-90
2023/07/09 08:53:39;;;;;;;56.33;20.40;;;28.90;56.40;;;;;;6149993;22;85967;-88
2023/07/09 08:56:09;;;;;;;51.83;19.45;;;29.00;56.10;;;;;;6148610;22;86627;-91
2023/07/09 08:58:37;;;;;;;45.70;18.55;;;29.00;56.40;;;;;;6149741;22;86750;-87
2023/07/09 09:01:06;;;;;;;42.42;19.02;;;28.90;56.50;;;;;;6152210;22;85970;-86
2023/07/09 09:03:41;;;;;;;45.55;18.48;;;29.00;55.80;;;;;;6148110;22;88510;-88
2023/07/09 09:06:15;;;;;;;42.90;19.15;;;29.00;56.20;;;;;;6149099;22;86386;-89
2023/07/09 09:08:54;;;;;;;52.03;17.20;;;29.10;55.90;;;;;;6151073;22;86261;-88
2023/07/09 09:11:23;;;;;;;123.60;43.78;;;29.00;55.40;;;;;;6149828;22;85937;-89
2023/07/09 09:13:52;;;;;;;127.60;45.83;;;29.00;56.00;;;;;;6150056;22;87299;-91
2023/07/09 09:16:26;;;;;;;111.93;38.97;;;29.00;56.40;;;;;;6152304;22;86905;-90
2023/07/09 09:18:57;;;;;;;95.03;35.85;;;29.00;56.50;;;;;;6149916;22;86031;-91
2023/07/09 09:21:42;;;;;;;116.55;41.50;;;29.00;57.00;;;;;;6147835;22;86513;-90
2023/07/09 09:24:23;;;;;;;85.90;32.88;;;29.00;57.30;;;;;;6148550;22;89324;-92
2023/07/09 09:26:52;;;;;;;80.78;32.13;;;28.90;57.30;;;;;;6147612;22;88518;-92
2023/07/09 09:29:18;;;;;;;71.55;30.55;;;28.90;57.20;;;;;;6148673;22;85994;-90
2023/07/09 09:31:50;;;;;;;76.65;28.27;;;28.90;57.50;;;;;;6148176;22;85800;-91
2023/07/09 09:34:21;;;;;;;65.50;24.92;;;28.80;57.90;;;;;;6149218;22;89013;-90
2023/07/09 09:36:47;;;;;;;60.50;25.15;;;28.80;58.10;;;;;;6151247;22;86830;-91
2023/07/09 09:39:13;;;;;;;72.38;26.52;;;28.80;58.20;;;;;;6147561;22;86224;-89
2023/07/09 09:41:40;;;;;;;58.90;24.65;;;28.90;57.80;;;;;;6150377;22;86647;-89
2023/07/09 09:44:06;;;;;;;55.25;24.20;;;28.90;57.40;;;;;;6149581;22;86688;-91
2023/07/09 09:46:32;;;;;;;62.42;23.55;;;29.10;57.10;;;;;;6149850;22;88318;-91
2023/07/09 09:49:03;;;;;;;55.85;21.45;;;29.20;57.20;;;;;;6149157;22;87306;-91
2023/07/09 09:51:28;;;;;;;52.80;21.08;;;29.30;57.30;;;;;;6148694;22;86360;-91
2023/07/09 09:54:00;;;;;;;51.40;21.90;;;29.40;57.10;;;;;;6149209;22;85990;-91
2023/07/09 09:56:36;;;;;;;48.17;19.38;;;29.50;56.80;;;;;;6154150;22;86249;-92
2023/07/09 09:59:03;;;;;;;48.25;19.73;;;29.30;57.30;;;;;;6150770;22;86096;-92
2023/07/09 10:01:31;;;;;;;52.13;19.67;;;29.20;57.70;;;;;;6153207;22;86144;-93
2023/07/09 10:03:59;;;;;;;48.22;21.48;;;29.20;57.60;;;;;;6151726;22;89175;-94
2023/07/09 10:06:37;;;;;;;48.90;20.27;;;29.20;57.40;;;;;;6151887;22;87962;-93
2023/07/09 10:09:21;;;;;;;52.20;20.60;;;29.10;57.50;;;;;;6153355;22;85623;-93
2023/07/09 10:11:54;;;;;;;43.38;19.20;;;29.10;57.80;;;;;;6140124;22;85970;-90
2023/07/09 10:14:29;;;;;;;46.00;18.13;;;29.00;58.00;;;;;;6159712;22;86769;-91
2023/07/09 10:17:15;;;;;;;41.95;18.75;;;29.10;57.60;;;;;;6150783;22;87583;-93
2023/07/09 10:20:07;;;;;;;36.85;17.45;;;29.00;57.90;;;;;;6150981;22;86193;-92
2023/07/09 10:22:40;;;;;;;44.20;17.92;;;29.10;58.10;;;;;;6153863;22;85972;-91
2023/07/09 10:25:13;;;;;;;39.53;17.95;;;29.10;57.80;;;;;;6153170;22;93455;-91
2023/07/09 10:28:02;;;;;;;38.83;16.67;;;29.10;57.80;;;;;;6150133;22;88192;-93
2023/07/09 10:30:49;;;;;;;39.63;17.08;;;29.10;57.70;;;;;;6152671;22;85742;-91
2023/07/09 10:33:28;;;;;;;34.33;16.80;;;29.10;57.60;;;;;;6153711;22;86228;-90
2023/07/09 10:36:22;;;;;;;39.22;16.60;;;29.20;57.40;;;;;;6153579;22;86535;-90
2023/07/09 10:39:15;;;;;;;34.38;15.50;;;29.20;57.30;;;;;;6146879;22;86693;-92
2023/07/09 10:41:43;;;;;;;33.10;16.40;;;29.10;57.60;;;;;;6152537;22;85544;-91
2023/07/09 10:44:14;;;;;;;28.92;14.27;;;29.20;57.50;;;;;;6153181;22;85946;-90
2023/07/09 10:46:44;;;;;;;32.75;15.05;;;29.20;57.50;;;;;;6152891;22;85782;-90
2023/07/09 10:49:13;;;;;;;31.98;16.17;;;29.20;57.30;;;;;;6153130;22;87051;-90
2023/07/09 10:51:49;;;;;;;30.30;15.65;;;29.20;57.40;;;;;;6153490;22;86033;-91
2023/07/09 10:54:33;;;;;;;34.95;14.63;;;29.10;57.70;;;;;;6151263;22;86540;-92
2023/07/09 10:57:21;;;;;;;32.65;14.93;;;29.10;58.00;;;;;;6153610;22;85790;-91
2023/07/09 10:59:49;;;;;;;36.47;16.13;;;29.10;58.40;;;;;;6152830;22;86335;-89
2023/07/09 11:02:21;;;;;;;31.42;13.68;;;29.10;58.40;;;;;;6148474;22;86045;-91
2023/07/09 11:05:00;;;;;;;31.38;14.80;;;29.10;59.20;;;;;;6150921;22;86036;-90
2023/07/09 11:07:36;;;;;;;32.63;15.15;;;29.00;59.20;;;;;;6150172;22;89119;-90
2023/07/09 11:10:14;;;;;;;34.55;14.15;;;29.00;58.70;;;;;;6151172;22;89290;-89
2023/07/09 11:12:45;;;;;;;39.30;14.95;;;29.10;59.50;;;;;;6151659;22;86033;-90
2023/07/09 11:15:18;;;;;;;35.13;14.98;;;29.10;59.50;;;;;;6150881;22;85724;-89
2023/07/09 11:17:47;;;;;;;31.13;14.85;;;29.10;59.40;;;;;;6148231;22;86860;-89
2023/07/09 11:20:32;;;;;;;32.42;14.43;;;29.20;59.00;;;;;;6148972;22;87972;-91
2023/07/09 11:23:23;;;;;;;29.85;13.77;;;29.30;59.10;;;;;;6148152;22;86078;-89
2023/07/09 11:26:02;;;;;;;28.08;14.30;;;29.40;58.90;;;;;;6137891;22;85794;-89
2023/07/09 11:28:36;;;;;;;28.17;13.82;;;29.40;58.80;;;;;;6149610;22;89146;-90
2023/07/09 11:31:35;;;;;;;28.42;13.70;;;29.40;58.80;;;;;;6154505;22;91050;-91
2023/07/09 11:34:07;;;;;;;29.88;12.95;;;29.50;59.10;;;;;;6150638;22;87849;-91
2023/07/09 11:36:45;;;;;;;35.50;14.70;;;29.60;58.80;;;;;;6152320;22;87106;-90
2023/07/09 11:40:05;;;;;;;;;;;;;;;;;;;;;
2023/07/09 11:45:58;;;;;;;31.00;13.50;;;29.90;58.30;;;;;;6145698;22;87512;-91
2023/07/09 11:48:34;;;;;;;26.15;12.75;;;29.70;55.90;;;;;;6095180;23;86133;-96
2023/07/09 11:51:13;;;;;;;24.83;12.90;;;29.50;54.00;;;;;;6101299;23;88035;-95
2023/07/09 11:53:47;;;;;;;24.67;12.07;;;29.30;52.60;;;;;;6119255;22;87851;-96
2023/07/09 11:59:19;;;;;;;19.95;11.98;;;29.00;50.70;;;;;;6148481;22;85971;-95
2023/07/09 12:02:19;;;;;;;25.42;12.75;;;29.10;49.30;;;;;;6127705;22;88738;-96
2023/07/09 12:04:50;;;;;;;23.30;12.57;;;29.00;47.70;;;;;;6141305;22;91588;-96
2023/07/09 12:07:17;;;;;;;21.40;11.43;;;28.90;46.20;;;;;;6127074;22;85913;-96
2023/07/09 12:09:50;;;;;;;19.20;11.23;;;28.80;45.90;;;;;;6125920;22;86284;-96
2023/07/09 12:12:27;;;;;;;21.70;11.93;;;28.80;45.00;;;;;;6123378;22;88911;-96
2023/07/09 12:14:54;;;;;;;23.25;11.95;;;28.70;44.20;;;;;;6122322;22;88414;-96
2023/07/09 12:17:26;;;;;;;27.55;11.77;;;28.70;43.50;;;;;;6123027;22;86669;-96
2023/07/09 12:19:52;;;;;;;27.15;12.40;;;28.60;43.30;;;;;;6119147;22;85875;-94
2023/07/09 12:22:47;;;;;;;26.25;12.27;;;28.50;43.10;;;;;;6119373;22;89295;-95
2023/07/09 12:25:26;;;;;;;23.25;11.30;;;28.40;43.60;;;;;;6102829;22;91546;-95
2023/07/09 12:27:57;;;;;;;21.45;11.55;;;28.50;44.10;;;;;;6121405;22;86254;-96
2023/07/09 12:30:23;;;;;;;21.98;10.68;;;28.40;43.50;;;;;;6121292;22;85898;-96
2023/07/09 12:32:52;;;;;;;19.05;10.70;;;28.50;43.00;;;;;;6124373;22;87951;-96
2023/07/09 12:35:19;;;;;;;21.45;11.05;;;28.50;42.80;;;;;;6125173;22;87942;-96
2023/07/09 12:37:46;;;;;;;19.65;10.45;;;28.50;42.60;;;;;;6120853;22;86288;-96
2023/07/09 12:44:24;;;;;;;20.65;10.45;;;28.50;41.90;;;;;;6076529;22;91437;-95
2023/07/09 12:46:56;;;;;;;18.08;9.48;;;28.50;41.50;;;;;;6106517;22;87656;-94
2023/07/09 12:49:27;;;;;;;21.23;10.52;;;28.60;41.10;;;;;;6123354;22;85824;-95
2023/07/09 12:52:02;;;;;;;17.83;9.35;;;28.50;40.80;;;;;;6118487;22;86075;-95
2023/07/09 12:55:01;;;;;;;18.63;9.85;;;28.50;41.10;;;;;;6122307;22;88805;-96
2023/07/09 12:57:28;;;;;;;15.50;9.18;;;28.50;41.10;;;;;;6121247;22;88795;-95
2023/07/09 12:59:55;;;;;;;16.23;9.32;;;28.50;40.80;;;;;;6106741;22;86196;-94
2023/07/09 13:02:29;;;;;;;18.88;9.32;;;28.50;40.80;;;;;;6121173;22;85973;-95
2023/07/09 13:05:06;;;;;;;17.33;9.13;;;28.50;40.70;;;;;;6119216;22;89660;-94
2023/07/09 13:07:40;;;;;;;16.77;8.83;;;28.40;40.40;;;;;;6120587;22;89092;-95
2023/07/09 13:10:25;;;;;;;18.35;9.40;;;28.30;40.10;;;;;;6144910;22;89189;-94
2023/07/09 13:12:59;;;;;;;16.27;10.02;;;28.10;40.60;;;;;;6119798;22;85905;-96
2023/07/09 13:15:42;;;;;;;15.18;9.07;;;28.20;41.10;;;;;;6121366;22;88337;-94
2023/07/09 13:18:15;;;;;;;15.50;9.05;;;28.30;40.90;;;;;;6119744;22;87632;-92
2023/07/09 13:20:44;;;;;;;17.83;9.95;;;28.30;41.50;;;;;;6142713;22;85949;-93
2023/07/09 13:23:15;;;;;;;;;;;28.40;42.40;;;;;;6148449;22;85842;-92
2023/07/09 13:25:42;;;;;;;17.55;8.63;;;28.40;43.30;;;;;;6121187;22;89243;-92
2023/07/09 13:28:22;;;;;;;24.23;8.50;;;28.50;44.10;;;;;;6144002;22;86436;-94
2023/07/09 13:30:59;;;;;;;15.45;8.10;;;28.50;44.20;;;;;;6128127;22;85966;-96
2023/07/09 13:33:56;;;;;;;20.77;9.95;;;28.70;45.00;;;;;;6115233;22;86006;-94
2023/07/09 13:36:22;;;;;;;15.68;8.23;;;28.80;45.10;;;;;;6124365;22;88031;-96
2023/07/09 13:38:54;;;;;;;17.60;8.65;;;28.80;44.40;;;;;;6096487;22;88851;-94
2023/07/09 13:41:23;;;;;;;17.23;8.65;;;28.60;44.50;;;;;;6127751;22;86027;-96
2023/07/09 13:43:51;;;;;;;;;;;28.70;44.00;;;;;;6148974;22;86198;-96
2023/07/09 13:46:52;;;;;;;13.70;6.88;;;28.70;44.50;;;;;;6165723;22;88509;-92
2023/07/09 13:52:56;;;;;;;17.25;8.27;;;28.70;45.80;;;;;;6161143;22;86149;-96
2023/07/09 13:55:41;;;;;;;13.90;7.82;;;28.80;46.20;;;;;;6029610;23;87126;-96
2023/07/09 13:58:42;;;;;;;13.13;7.68;;;28.80;46.10;;;;;;6023471;23;85872;-94
2023/07/09 14:01:33;;;;;;;13.40;7.70;;;29.00;47.10;;;;;;5993125;23;88865;-96
2023/07/09 14:04:07;;;;;;;12.82;7.35;;;29.10;47.60;;;;;;6024650;23;88091;-95
2023/07/09 14:07:02;;;;;;;14.68;7.45;;;29.10;48.30;;;;;;6119892;22;86213;-96
2023/07/09 14:09:34;;;;;;;12.57;7.72;;;29.20;49.10;;;;;;6156092;22;87810;-96
2023/07/09 14:12:24;;;;;;;18.90;7.57;;;29.30;48.60;;;;;;6169449;22;86455;-96
2023/07/09 14:33:36;;;;;;;12.32;6.60;;;29.80;49.60;;;;;;6169907;22;87482;-96
2023/07/09 14:59:20;;;;;;;10.18;5.97;;;29.80;51.70;;;;;;6166671;22;87831;-96
2023/07/09 15:01:46;;;;;;;15.60;6.93;;;29.90;51.70;;;;;;6130002;22;89465;-95
2023/07/09 15:04:47;;;;;;;9.85;6.10;;;29.90;52.60;;;;;;6143970;22;88882;-94
2023/07/09 15:07:19;;;;;;;15.02;6.38;;;30.00;53.10;;;;;;6046824;23;88142;-96
2023/07/09 15:09:45;;;;;;;19.80;6.07;;;30.00;52.80;;;;;;6082144;23;85677;-94
2023/07/09 15:26:16;;;;;;;16.55;7.03;;;29.90;52.00;;;;;;6171376;22;87874;-95
2023/07/09 15:28:50;;;;;;;16.73;6.93;;;30.00;52.50;;;;;;6163760;22;86560;-95
2023/07/09 15:32:01;;;;;;;19.30;7.63;;;30.00;52.40;;;;;;6170771;22;85382;-96
2023/07/09 15:35:08;;;;;;;22.52;7.88;;;30.10;52.50;;;;;;6134454;22;88841;-94
2023/07/09 15:37:42;;;;;;;16.17;7.45;;;30.10;51.80;;;;;;6078047;23;89106;-95
2023/07/09 15:40:21;;;;;;;13.93;6.60;;;30.20;52.70;;;;;;6087522;23;86108;-94
2023/07/09 15:42:48;;;;;;;14.30;7.10;;;30.20;53.10;;;;;;6084678;23;86294;-90
2023/07/09 15:45:18;;;;;;;15.00;6.85;;;30.20;53.10;;;;;;6084329;23;89333;-92
2023/07/09 15:47:49;;;;;;;18.75;7.07;;;30.20;53.30;;;;;;6085745;23;88334;-91
2023/07/09 15:50:25;;;;;;;13.23;6.82;;;30.30;53.50;;;;;;6112304;23;86126;-92
2023/07/09 15:52:51;;;;;;;13.95;6.07;;;30.40;53.70;;;;;;6112905;23;86495;-91
2023/07/09 15:55:22;;;;;;;13.57;6.28;;;30.30;53.70;;;;;;6086838;23;89625;-92
2023/07/09 15:57:50;;;;;;;13.82;6.18;;;30.40;53.90;;;;;;6112856;23;86653;-93
2023/07/09 16:00:22;;;;;;;10.73;6.17;;;30.40;54.20;;;;;;6086613;23;86582;-94
2023/07/09 16:02:49;;;;;;;14.77;6.40;;;30.40;54.40;;;;;;6090635;23;86433;-95
2023/07/09 16:05:20;;;;;;;11.07;6.63;;;30.40;54.30;;;;;;6090215;23;87950;-95
2023/07/09 16:07:46;;;;;;;12.55;6.22;;;30.30;52.20;;;;;;6091464;23;88095;-95
2023/07/09 16:10:13;;;;;;;8.25;5.35;;;30.20;51.10;;;;;;6116300;23;86116;-94
2023/07/09 16:12:39;;;;;;;11.13;5.45;;;30.10;50.00;;;;;;6115947;23;86318;-95
2023/07/09 16:15:22;;;;;;;10.27;4.97;;;30.10;49.00;;;;;;6106272;23;89608;-96
2023/07/09 16:17:48;;;;;;;18.58;6.57;;;30.10;48.40;;;;;;6088438;23;88555;-93
2023/07/09 16:20:23;;;;;;;11.65;5.78;;;30.00;48.00;;;;;;6099920;23;86198;-94
2023/07/09 16:23:02;;;;;;;10.75;5.28;;;29.90;47.60;;;;;;6117501;23;85562;-96
2023/07/09 16:25:37;;;;;;;15.27;5.10;;;29.80;48.20;;;;;;6116845;22;88613;-92
2023/07/09 16:28:03;;;;;;;18.45;5.50;;;29.40;46.90;;;;;;6117601;22;86134;-90
2023/07/09 16:30:31;;;;;;;8.40;4.80;;;29.20;47.10;;;;;;6089457;23;85910;-91
2023/07/09 16:32:57;;;;;;;14.90;5.57;;;29.10;46.30;;;;;;6090627;23;86455;-92
2023/07/09 16:35:26;;;;;;;12.48;5.15;;;28.70;46.10;;;;;;6120985;23;87344;-92
2023/07/09 16:37:52;;;;;;;11.20;4.82;;;28.10;46.50;;;;;;6124139;23;86852;-91
2023/07/09 16:40:28;;;;;;;9.50;4.80;;;28.10;46.70;;;;;;6096333;23;86010;-93
2023/07/09 16:42:54;;;;;;;9.63;5.00;;;28.30;46.80;;;;;;6123588;23;86194;-94
2023/07/09 16:45:23;;;;;;;10.23;5.03;;;28.50;46.60;;;;;;6095473;23;89407;-92
2023/07/09 16:47:50;;;;;;;8.07;4.55;;;28.70;46.60;;;;;;6095861;23;88213;-93
2023/07/09 16:50:24;;;;;;;8.10;4.63;;;28.80;46.70;;;;;;6121761;23;86370;-93
2023/07/09 16:52:52;;;;;;;9.18;4.78;;;28.80;46.90;;;;;;6097099;23;86299;-95
2023/07/09 16:55:26;;;;;;;13.10;4.85;;;29.00;47.40;;;;;;6097964;23;88002;-92
2023/07/09 16:57:57;;;;;;;12.05;5.30;;;29.00;47.50;;;;;;6095341;23;87872;-94
2023/07/09 17:00:34;;;;;;;9.23;4.70;;;29.00;47.60;;;;;;6097389;23;86282;-94
2023/07/09 17:03:04;;;;;;;14.52;5.28;;;29.10;47.80;;;;;;6093305;23;86785;-90
2023/07/09 17:05:29;;;;;;;8.85;5.07;;;29.10;48.20;;;;;;6119078;22;86525;-91
2023/07/09 17:07:55;;;;;;;6.72;3.88;;;29.10;48.70;;;;;;6115579;23;85695;-91
2023/07/09 17:10:21;;;;;;;16.02;4.90;;;29.10;48.70;;;;;;6116080;23;85925;-91
2023/07/09 17:12:56;;;;;;;9.13;4.93;;;29.10;49.50;;;;;;6115031;23;86043;-90
2023/07/09 17:15:26;;;;;;;11.85;5.20;;;29.10;49.40;;;;;;6114184;22;86805;-89
2023/07/09 17:17:55;;;;;;;12.38;5.38;;;29.10;49.20;;;;;;6114449;23;86152;-90
2023/07/09 17:20:24;;;;;;;8.30;4.55;;;29.10;49.30;;;;;;6114827;23;86043;-89
2023/07/09 17:22:51;;;;;;;10.60;5.07;;;29.10;49.60;;;;;;6114572;23;85975;-89
2023/07/09 17:25:34;;;;;;;12.00;4.60;;;29.10;49.70;;;;;;6089792;23;89689;-91
2023/07/09 17:28:02;;;;;;;6.60;4.78;;;29.10;49.70;;;;;;6114145;23;90637;-90
2023/07/09 17:30:29;;;;;;;5.93;4.43;;;29.10;49.90;;;;;;6112866;23;85571;-89
2023/07/09 17:32:55;;;;;;;11.07;4.68;;;29.20;49.70;;;;;;6088373;23;86339;-89
2023/07/09 17:35:21;;;;;;;11.10;5.25;;;29.20;50.30;;;;;;6115134;22;87380;-91
2023/07/09 17:37:52;;;;;;;10.10;5.07;;;29.20;50.50;;;;;;6114221;23;85987;-88
2023/07/09 17:40:25;;;;;;;9.30;4.88;;;29.10;51.20;;;;;;6115948;23;85995;-88
2023/07/09 17:42:51;;;;;;;13.13;4.70;;;29.10;52.00;;;;;;6113924;23;87250;-90
2023/07/09 17:45:17;;;;;;;13.63;4.88;;;29.30;52.00;;;;;;6090225;23;89501;-92
2023/07/09 17:47:43;;;;;;;11.45;4.35;;;29.40;52.00;;;;;;6090390;23;88679;-90
2023/07/09 17:50:20;;;;;;;12.85;5.13;;;29.50;52.00;;;;;;6090072;23;85955;-90
2023/07/09 17:52:46;;;;;;;9.48;4.72;;;29.60;52.20;;;;;;6115342;23;86414;-91
2023/07/09 17:55:13;;;;;;;9.07;5.07;;;29.30;50.40;;;;;;6115699;22;86719;-91
2023/07/09 17:57:41;;;;;;;10.63;4.63;;;29.00;49.90;;;;;;6088411;23;88420;-90
2023/07/09 18:00:14;;;;;;;8.55;5.00;;;28.70;49.10;;;;;;6113676;23;86372;-89
2023/07/09 18:02:40;;;;;;;8.57;4.82;;;28.40;48.10;;;;;;6115238;23;85775;-90
2023/07/09 18:05:25;;;;;;;9.07;5.00;;;28.20;47.60;;;;;;6111500;22;87190;-90
2023/07/09 18:07:50;;;;;;;10.43;4.97;;;28.10;46.40;;;;;;6115383;23;86369;-88
2023/07/09 18:10:16;;;;;;;8.30;5.00;;;27.80;45.90;;;;;;6116810;23;86294;-89
2023/07/09 18:12:42;;;;;;;7.53;4.70;;;27.40;45.30;;;;;;6116896;23;86124;-89
2023/07/09 18:15:14;;;;;;;7.57;4.47;;;27.10;44.80;;;;;;6114938;22;85638;-88
2023/07/09 18:17:40;;;;;;;8.52;4.07;;;27.00;44.30;;;;;;6115623;23;86244;-89
2023/07/09 18:20:13;;;;;;;8.35;4.75;;;26.90;43.80;;;;;;6114960;23;86336;-89
2023/07/09 18:22:39;;;;;;;11.05;4.50;;;26.60;43.60;;;;;;6114187;23;86520;-91
2023/07/09 18:25:05;;;;;;;8.40;4.60;;;26.40;43.00;;;;;;6117160;22;86913;-89
2023/07/09 18:27:35;;;;;;;8.48;4.60;;;26.20;42.80;;;;;;6114332;23;86211;-89
2023/07/09 18:30:02;;;;;;;5.40;4.22;;;26.00;42.50;;;;;;6088101;23;86184;-90
2023/07/09 18:32:28;;;;;;;7.45;4.13;;;25.90;41.90;;;;;;6117593;23;86200;-88
2023/07/09 18:34:56;;;;;;;7.90;4.43;;;25.90;41.40;;;;;;6117583;22;86867;-90
2023/07/09 18:37:22;;;;;;;5.17;3.27;;;25.80;41.00;;;;;;6089353;23;88767;-89
2023/07/09 18:39:49;;;;;;;7.97;4.15;;;25.70;40.80;;;;;;6117004;23;86050;-92
2023/07/09 18:42:17;;;;;;;6.75;3.90;;;26.00;40.70;;;;;;6089395;23;85697;-91
2023/07/09 18:44:43;;;;;;;10.80;3.92;;;26.40;40.20;;;;;;6117726;22;86457;-91
2023/07/09 18:47:10;;;;;;;6.35;4.05;;;26.70;39.80;;;;;;6091676;23;87516;-92
2023/07/09 18:49:36;;;;;;;6.90;4.03;;;26.90;39.70;;;;;;6092969;23;86218;-91
2023/07/09 18:52:02;;;;;;;8.35;4.35;;;27.00;40.00;;;;;;6116901;23;86205;-89
2023/07/09 18:54:28;;;;;;;8.80;4.82;;;27.20;40.30;;;;;;6089006;23;88802;-91
2023/07/09 18:56:53;;;;;;;9.15;4.15;;;27.40;40.20;;;;;;6088571;23;88688;-91
2023/07/09 18:59:22;;;;;;;6.68;3.20;;;27.50;40.20;;;;;;6116552;23;85963;-92
2023/07/09 19:01:49;;;;;;;12.25;4.05;;;27.60;40.80;;;;;;6089693;23;86840;-92
2023/07/09 19:04:20;;;;;;;7.93;4.22;;;27.70;41.20;;;;;;6114021;23;86512;-92
2023/07/09 19:06:49;;;;;;;8.05;3.85;;;27.80;41.20;;;;;;6090964;23;88794;-92
2023/07/09 19:09:17;;;;;;;6.68;4.13;;;27.90;41.30;;;;;;6119861;23;85927;-93
2023/07/09 19:11:43;;;;;;;4.93;3.80;;;27.90;41.50;;;;;;6092224;23;86160;-93
2023/07/09 19:14:09;;;;;;;7.55;4.15;;;27.90;42.00;;;;;;6119315;23;86294;-92
2023/07/09 19:16:34;;;;;;;6.25;3.95;;;27.90;42.20;;;;;;6118967;22;86339;-92
2023/07/09 19:19:01;;;;;;;7.85;4.38;;;27.90;42.20;;;;;;6092773;23;86048;-93
2023/07/09 19:21:29;;;;;;;6.40;3.90;;;28.00;42.80;;;;;;6094983;23;86230;-94
2023/07/09 19:23:55;;;;;;;6.60;4.03;;;28.00;42.90;;;;;;6092225;23;88055;-92
2023/07/09 19:26:25;;;;;;;5.95;3.95;;;27.90;43.00;;;;;;6091059;23;88610;-93
2023/07/09 19:28:50;;;;;;;6.65;3.72;;;28.00;43.60;;;;;;6093386;23;85918;-93
2023/07/09 19:31:19;;;;;;;5.45;3.72;;;27.90;43.60;;;;;;6094152;23;85682;-94
2023/07/09 19:33:44;;;;;;;5.35;4.35;;;28.00;43.80;;;;;;6094309;23;89430;-90
2023/07/09 19:36:22;;;;;;;6.75;4.38;;;28.00;43.90;;;;;;6091450;23;87531;-92
2023/07/09 19:38:48;;;;;;;5.60;3.92;;;27.90;44.30;;;;;;6091233;23;85880;-93
2023/07/09 19:41:15;;;;;;;8.05;4.15;;;28.00;44.70;;;;;;6093244;23;86036;-94
2023/07/09 19:43:41;;;;;;;9.85;3.90;;;28.00;45.00;;;;;;6121391;23;87013;-91
2023/07/09 19:46:16;;;;;;;6.20;3.97;;;28.10;45.10;;;;;;6091592;23;88784;-92
2023/07/09 19:48:42;;;;;;;6.70;4.20;;;28.10;45.20;;;;;;6116858;23;86047;-91
2023/07/09 19:51:08;;;;;;;5.72;4.15;;;28.20;45.10;;;;;;6116690;23;85961;-91
2023/07/09 19:53:34;;;;;;;4.78;3.33;;;28.10;45.30;;;;;;6091037;23;88284;-91